createdAt,value
2023-03-01T16:25:01.309Z,34.01
2023-03-01T16:27:27.906Z,35.44
2023-03-01T16:29:55.469Z,36.82
2023-03-01T16:32:22.143Z,37.37
2023-03-01T16:34:50.261Z,38.81
2023-03-01T16:37:18.421Z,39.43
2023-03-01T16:39:45.018Z,40.12
2023-03-01T16:42:11.484Z,40.60
2023-03-01T16:44:37.912Z,41.78
2023-03-01T16:47:04.412Z,42.34
2023-03-01T16:49:30.892Z,42.39
2023-03-01T16:51:57.676Z,43.00
2023-03-01T16:54:24.208Z,42.94
2023-03-01T16:56:50.658Z,43.08
2023-03-01T16:59:19.234Z,43.86
2023-03-01T17:01:45.956Z,43.77
2023-03-01T17:04:13.048Z,44.09
2023-03-01T17:06:40.081Z,44.39
2023-03-01T17:09:06.583Z,44.38
2023-03-01T17:11:33.401Z,44.76
2023-03-01T17:14:00.340Z,43.95
2023-03-01T17:16:29.248Z,45.15
2023-03-01T17:18:55.875Z,44.51
2023-03-01T17:21:22.442Z,44.07
2023-03-01T17:23:50.998Z,44.35
2023-03-01T17:26:17.965Z,44.46
2023-03-01T17:28:47.188Z,45.21
2023-03-01T17:31:13.849Z,45.31
2023-03-01T17:33:41.082Z,45.29
2023-03-01T17:36:09.937Z,45.89
2023-03-01T17:38:38.586Z,44.93
2023-03-01T17:41:05.712Z,45.16
2023-03-01T17:43:37.405Z,45.48
2023-03-01T17:46:04.589Z,45.47
2023-03-01T17:48:34.643Z,46.65
2023-03-01T17:51:10.006Z,46.69
2023-03-01T17:53:37.085Z,47.26
2023-03-01T17:56:08.641Z,49.10
2023-03-01T17:58:35.335Z,48.76
2023-03-01T18:01:20.463Z,48.58
2023-03-01T18:03:54.096Z,47.93
2023-03-01T18:06:24.250Z,47.55
2023-03-01T18:08:54.799Z,48.86
2023-03-01T18:11:25.290Z,49.77
2023-03-01T18:13:56.961Z,48.76
2023-03-01T18:16:23.578Z,48.36
2023-03-01T18:18:55.167Z,48.68
2023-03-01T18:21:26.141Z,48.98
2023-03-01T18:23:59.871Z,50.83
2023-03-01T18:26:30.594Z,52.20
2023-03-01T18:29:05.104Z,51.76
2023-03-01T18:31:37.366Z,52.09
2023-03-01T18:34:05.114Z,51.52
2023-03-01T18:36:37.576Z,51.27
2023-03-01T18:39:10.518Z,51.99
2023-03-01T18:41:37.549Z,51.73
2023-03-01T18:44:09.549Z,51.80
2023-03-01T18:46:48.523Z,52.10
2023-03-01T18:49:19.034Z,52.08
2023-03-01T18:51:45.906Z,51.06
2023-03-01T18:54:15.429Z,51.35
2023-03-01T18:56:44.016Z,50.85
2023-03-01T18:59:20.597Z,51.60
2023-03-01T19:01:51.047Z,54.03
2023-03-01T19:04:20.964Z,52.41
2023-03-01T19:06:49.205Z,51.27
2023-03-01T19:09:24.565Z,51.57
2023-03-01T19:12:03.635Z,52.98
2023-03-01T19:14:30.653Z,53.01
2023-03-01T19:17:04.319Z,53.49
2023-03-01T19:19:38.257Z,54.12
2023-03-01T19:22:13.986Z,54.20
2023-03-01T19:24:40.673Z,53.30
2023-03-01T19:27:10.007Z,53.73
2023-03-01T19:29:41.001Z,54.04
2023-03-01T19:32:08.632Z,53.86
2023-03-01T19:34:40.009Z,55.21
2023-03-01T19:37:09.229Z,54.99
2023-03-01T19:39:36.636Z,53.77
2023-03-01T19:42:08.828Z,52.71
2023-03-01T19:44:40.763Z,52.86
2023-03-01T19:47:12.381Z,52.85
2023-03-01T19:49:43.275Z,52.79
2023-03-01T19:52:17.628Z,53.58
2023-03-01T19:54:47.515Z,54.18
2023-03-01T19:57:14.722Z,53.81
2023-03-01T19:59:47.570Z,53.63
2023-03-01T20:02:14.283Z,54.78
2023-03-01T20:04:41.210Z,55.10
2023-03-01T20:07:07.733Z,55.56
2023-03-01T20:09:41.615Z,55.64
2023-03-01T20:12:15.592Z,55.10
2023-03-01T20:15:05.206Z,54.51
2023-03-01T20:17:31.788Z,55.12
2023-03-01T20:20:07.221Z,54.11
2023-03-01T20:22:35.960Z,55.84
2023-03-01T20:25:06.440Z,55.38
2023-03-01T20:27:35.782Z,56.00
2023-03-01T20:30:05.102Z,55.99
2023-03-01T20:32:33.890Z,56.07
2023-03-01T20:35:01.636Z,56.13
2023-03-01T20:37:32.820Z,56.50
2023-03-01T20:40:03.568Z,56.83
2023-03-01T20:42:30.229Z,57.59
2023-03-01T20:44:58.184Z,57.45
2023-03-01T20:47:25.249Z,57.08
2023-03-01T20:49:52.841Z,58.66
2023-03-01T20:52:21.136Z,58.17
2023-03-01T20:54:53.870Z,58.54
2023-03-01T20:57:24.223Z,58.62
2023-03-01T20:59:59.052Z,59.20
2023-03-01T21:02:28.360Z,58.13
2023-03-01T21:05:05.898Z,59.27
2023-03-01T21:07:33.035Z,59.14
2023-03-01T21:10:12.503Z,58.22
2023-03-01T21:12:40.399Z,60.80
2023-03-01T21:15:28.641Z,58.31
2023-03-01T21:18:02.695Z,59.04
2023-03-01T21:20:34.232Z,58.75
2023-03-01T21:23:04.679Z,59.69
2023-03-01T21:25:37.016Z,60.43
2023-03-01T21:28:06.688Z,60.57
2023-03-01T21:30:34.880Z,60.82
2023-03-01T21:33:05.132Z,60.44
2023-03-01T21:35:33.480Z,61.19
2023-03-01T21:38:05.179Z,60.11
2023-03-01T21:40:32.913Z,60.67
2023-03-01T21:43:00.439Z,61.55
2023-03-01T21:45:35.018Z,61.20
2023-03-01T21:48:06.068Z,60.42
2023-03-01T21:50:35.834Z,61.56
2023-03-01T21:53:27.785Z,61.98
2023-03-01T21:55:55.131Z,61.00
2023-03-01T21:58:23.576Z,62.04
2023-03-01T22:00:55.198Z,62.10
2023-03-01T22:03:24.617Z,62.87
2023-03-01T22:05:59.938Z,61.55
2023-03-01T22:08:28.486Z,63.14
2023-03-01T22:10:56.366Z,62.51
2023-03-01T22:13:24.471Z,63.66
2023-03-01T22:15:54.978Z,62.56
2023-03-01T22:18:21.568Z,62.62
2023-03-01T22:20:52.244Z,63.93
2023-03-01T22:23:23.823Z,63.59
2023-03-01T22:25:52.397Z,63.96
2023-03-01T22:28:25.547Z,64.17
2023-03-01T22:30:52.274Z,64.44
2023-03-01T22:33:26.789Z,65.15
2023-03-01T22:35:58.590Z,64.71
2023-03-01T22:38:27.638Z,65.75
2023-03-01T22:41:03.323Z,64.78
2023-03-01T22:43:39.119Z,65.87
2023-03-01T22:46:27.797Z,65.04
2023-03-01T22:49:02.197Z,65.77
2023-03-01T22:51:35.032Z,66.47
2023-03-01T22:54:05.148Z,67.84
2023-03-01T22:56:38.949Z,68.03
2023-03-01T22:59:17.929Z,68.12
2023-03-01T23:01:48.689Z,69.41
2023-03-01T23:04:18.202Z,69.19
2023-03-01T23:06:51.865Z,69.50
2023-03-01T23:09:21.922Z,68.90
2023-03-01T23:11:59.684Z,69.22
2023-03-01T23:14:32.995Z,70.73
2023-03-01T23:17:07.535Z,70.31
2023-03-01T23:19:36.270Z,71.59
2023-03-01T23:22:06.689Z,71.99
2023-03-01T23:24:35.295Z,72.98
2023-03-01T23:29:47.128Z,72.93
2023-03-01T23:32:18.587Z,72.77
2023-03-01T23:34:46.319Z,73.61
2023-03-01T23:37:16.276Z,73.39
2023-03-01T23:39:48.662Z,73.28
2023-03-01T23:42:15.257Z,74.27
2023-03-01T23:44:47.856Z,75.11
2023-03-01T23:47:14.635Z,74.85
2023-03-01T23:49:43.365Z,75.04
2023-03-01T23:52:18.709Z,75.90
2023-03-01T23:54:49.136Z,75.48
2023-03-01T23:57:17.674Z,75.99
2023-03-01T23:59:45.545Z,75.97
